Time;durP1;ratioP1;P1;durP2;ratioP2;P2;SDS_P1;SDS_P2;PMS_P1;PMS_P2;Temp;Humidity;BMP_temperature;BMP_pressure;BME280_temperature;BME280_humidity;BME280_pressure;Samples;Min_cycle;Max_cycle;Signal;HPM_P1;HPM_P2
2021/08/03 00:02:25;;;;;;;3.33;0.98;;;15.00;82.40;;;;;;5093440;28;20026;-76
2021/08/03 00:04:55;;;;;;;4.70;1.10;;;15.00;82.40;;;;;;5093205;28;20020;-76
2021/08/03 00:07:23;;;;;;;3.83;1.08;;;15.00;82.40;;;;;;5093549;28;20020;-76
2021/08/03 00:09:49;;;;;;;2.97;1.20;;;14.90;82.30;;;;;;5093395;28;20028;-76
2021/08/03 00:12:17;;;;;;;3.20;0.85;;;14.90;82.10;;;;;;5093931;28;20487;-76
2021/08/03 00:14:49;;;;;;;2.85;1.00;;;14.90;82.10;;;;;;5094524;28;20060;-76
2021/08/03 00:17:21;;;;;;;3.10;1.10;;;14.90;82.20;;;;;;5095078;28;20020;-77
2021/08/03 00:19:47;;;;;;;4.32;1.10;;;14.90;82.30;;;;;;5103090;28;20043;-75
2021/08/03 00:22:13;;;;;;;3.88;1.58;;;15.00;82.80;;;;;;5103895;28;20027;-75
2021/08/03 00:24:39;;;;;;;2.83;1.15;;;14.90;82.70;;;;;;5094530;28;20048;-75
2021/08/03 00:27:07;;;;;;;2.63;1.30;;;14.90;82.70;;;;;;5094217;28;20027;-76
2021/08/03 00:29:35;;;;;;;4.30;1.00;;;14.90;82.70;;;;;;5092894;28;20020;-76
2021/08/03 00:32:01;;;;;;;3.55;1.35;;;14.90;82.70;;;;;;5094324;28;20039;-76
2021/08/03 00:34:26;;;;;;;3.42;1.15;;;14.80;82.80;;;;;;5095131;28;20035;-76
2021/08/03 00:36:52;;;;;;;2.17;0.98;;;14.80;83.20;;;;;;5099495;28;20024;-75
2021/08/03 00:39:18;;;;;;;4.40;1.10;;;14.80;83.40;;;;;;5100039;28;20119;-74
2021/08/03 00:42:03;;;;;;;3.00;0.90;;;14.80;83.70;;;;;;5096273;28;20043;-75
2021/08/03 00:44:52;;;;;;;3.50;1.23;;;14.90;83.80;;;;;;5093265;28;20016;-75
2021/08/03 00:47:19;;;;;;;3.97;1.30;;;14.80;83.70;;;;;;5092869;28;20027;-77
2021/08/03 00:49:48;;;;;;;1.77;1.00;;;14.80;83.80;;;;;;5094071;28;20107;-75
2021/08/03 00:52:15;;;;;;;3.40;1.13;;;14.80;83.80;;;;;;5092454;28;20047;-75
2021/08/03 00:54:42;;;;;;;2.95;1.05;;;14.80;83.80;;;;;;5092337;28;20124;-75
2021/08/03 00:57:10;;;;;;;2.00;0.93;;;14.80;83.80;;;;;;5092152;28;20024;-75
2021/08/03 00:59:36;;;;;;;4.07;1.10;;;14.80;83.90;;;;;;5092419;28;20032;-76
2021/08/03 01:02:03;;;;;;;3.10;0.90;;;14.80;84.00;;;;;;5092146;28;20016;-76
2021/08/03 01:04:29;;;;;;;5.72;1.42;;;14.70;84.00;;;;;;5093742;28;20032;-75
2021/08/03 01:07:00;;;;;;;3.20;1.10;;;14.70;84.20;;;;;;5092028;28;20020;-76
2021/08/03 01:09:54;;;;;;;2.85;1.10;;;14.70;84.30;;;;;;5093439;28;20081;-76
2021/08/03 01:12:38;;;;;;;4.60;1.20;;;14.80;84.40;;;;;;5091989;28;20490;-75
2021/08/03 01:15:07;;;;;;;2.78;1.00;;;14.80;84.50;;;;;;5091896;28;20173;-75
2021/08/03 01:17:48;;;;;;;3.50;1.67;;;14.70;84.50;;;;;;5092072;28;20607;-74
2021/08/03 01:20:39;;;;;;;3.35;1.13;;;14.70;84.60;;;;;;5091500;28;20028;-74
2021/08/03 01:23:27;;;;;;;3.45;1.42;;;14.70;84.60;;;;;;5093079;28;20066;-76
2021/08/03 01:26:05;;;;;;;5.95;1.25;;;14.70;84.60;;;;;;5093278;28;20020;-76
2021/08/03 01:28:33;;;;;;;3.45;1.30;;;14.70;84.70;;;;;;5097279;28;20055;-76
2021/08/03 01:31:07;;;;;;;4.32;1.33;;;14.60;84.90;;;;;;5091209;28;20111;-75
2021/08/03 01:33:37;;;;;;;4.05;1.10;;;14.70;85.10;;;;;;5092434;28;20086;-76
2021/08/03 01:36:04;;;;;;;3.67;1.27;;;14.70;85.10;;;;;;5092804;28;20032;-75
2021/08/03 01:38:32;;;;;;;2.80;1.02;;;14.70;85.20;;;;;;5091507;28;20115;-76
2021/08/03 01:41:06;;;;;;;3.67;1.35;;;14.60;85.20;;;;;;5091411;28;20062;-75
2021/08/03 01:43:34;;;;;;;4.40;1.20;;;14.70;85.40;;;;;;5091475;28;20476;-77
2021/08/03 01:46:02;;;;;;;4.15;1.00;;;14.60;85.40;;;;;;5091077;28;20028;-76
2021/08/03 01:48:30;;;;;;;3.67;1.25;;;14.60;85.50;;;;;;5090417;28;20056;-75
2021/08/03 01:50:59;;;;;;;4.68;1.20;;;14.60;85.40;;;;;;5092377;28;20024;-77
2021/08/03 01:53:26;;;;;;;4.27;1.30;;;14.60;85.80;;;;;;5092511;28;20036;-76
2021/08/03 01:55:57;;;;;;;4.07;1.27;;;14.60;85.80;;;;;;5091672;28;20031;-75
2021/08/03 01:58:25;;;;;;;3.50;1.20;;;14.50;85.90;;;;;;5091417;28;20456;-77
2021/08/03 02:00:54;;;;;;;3.38;1.10;;;14.60;86.00;;;;;;5091012;28;20028;-76
2021/08/03 02:03:22;;;;;;;4.50;1.10;;;14.60;86.10;;;;;;5091330;28;20031;-77
2021/08/03 02:05:50;;;;;;;6.70;1.38;;;14.60;86.10;;;;;;5091362;28;20046;-75
2021/08/03 02:08:18;;;;;;;5.30;1.45;;;14.60;86.00;;;;;;5092598;28;20510;-80
2021/08/03 02:10:45;;;;;;;3.63;1.13;;;14.50;86.00;;;;;;5091149;28;20483;-76
2021/08/03 02:13:11;;;;;;;2.03;0.90;;;14.50;86.30;;;;;;5090696;28;20086;-76
2021/08/03 02:15:37;;;;;;;5.00;1.85;;;14.50;86.30;;;;;;5091200;28;20074;-74
2021/08/03 02:18:03;;;;;;;2.70;1.08;;;14.50;86.40;;;;;;5090705;28;20375;-75
2021/08/03 02:20:29;;;;;;;1.95;0.75;;;14.40;86.60;;;;;;5091379;28;20024;-75
2021/08/03 02:22:55;;;;;;;3.33;1.00;;;14.50;86.80;;;;;;5091319;28;20081;-75
2021/08/03 02:25:20;;;;;;;4.07;1.00;;;14.50;86.80;;;;;;5092429;28;20021;-76
2021/08/03 02:27:46;;;;;;;2.72;0.90;;;14.50;86.60;;;;;;5092860;28;20064;-76
2021/08/03 02:30:12;;;;;;;1.92;0.77;;;14.50;86.60;;;;;;5092991;28;20456;-76
2021/08/03 02:32:45;;;;;;;2.85;1.00;;;14.50;86.60;;;;;;5095711;28;20024;-75
2021/08/03 02:35:17;;;;;;;2.33;0.90;;;14.50;86.70;;;;;;5094212;28;20083;-75
2021/08/03 02:38:06;;;;;;;2.88;1.10;;;14.50;86.70;;;;;;5094915;28;20049;-77
2021/08/03 02:40:32;;;;;;;2.42;1.02;;;14.50;86.70;;;;;;5092694;28;20107;-75
2021/08/03 02:42:59;;;;;;;3.63;1.20;;;14.50;86.70;;;;;;5092364;28;20099;-76
2021/08/03 02:45:25;;;;;;;2.28;1.23;;;14.50;86.70;;;;;;5092138;28;20016;-76
2021/08/03 02:47:55;;;;;;;2.08;0.93;;;14.50;86.70;;;;;;5091061;28;20016;-76
2021/08/03 02:50:24;;;;;;;3.05;1.27;;;14.50;86.60;;;;;;5090868;28;20028;-75
2021/08/03 02:52:53;;;;;;;5.82;1.40;;;14.50;86.70;;;;;;5090900;28;20077;-76
2021/08/03 02:55:23;;;;;;;4.57;1.23;;;14.40;86.80;;;;;;5091664;28;20658;-76
2021/08/03 02:57:58;;;;;;;2.60;1.10;;;14.40;86.90;;;;;;5091002;28;20020;-75
2021/08/03 03:00:25;;;;;;;4.57;1.30;;;14.40;87.00;;;;;;5094870;28;20101;-77
2021/08/03 03:02:51;;;;;;;3.55;0.98;;;14.30;87.10;;;;;;5095853;28;20020;-76
2021/08/03 03:05:26;;;;;;;2.97;1.08;;;14.30;87.20;;;;;;5095709;28;20032;-75
2021/08/03 03:08:02;;;;;;;5.50;1.63;;;14.40;87.40;;;;;;5094678;28;20024;-76
2021/08/03 03:10:30;;;;;;;3.58;1.13;;;14.30;87.50;;;;;;5094467;28;20111;-75
2021/08/03 03:13:02;;;;;;;4.25;1.27;;;14.30;87.40;;;;;;5094592;28;20028;-76
2021/08/03 03:15:29;;;;;;;3.60;1.10;;;14.30;87.50;;;;;;5095212;28;20126;-75
2021/08/03 03:17:56;;;;;;;3.28;1.25;;;14.30;87.60;;;;;;5099873;28;20091;-75
2021/08/03 03:20:22;;;;;;;2.88;1.10;;;14.30;87.80;;;;;;5099471;28;20472;-76
2021/08/03 03:22:52;;;;;;;5.88;1.30;;;14.20;87.80;;;;;;5096162;28;20024;-76
2021/08/03 03:25:23;;;;;;;2.15;1.00;;;14.20;87.90;;;;;;5095749;28;20024;-76
2021/08/03 03:27:52;;;;;;;3.25;1.10;;;14.20;88.10;;;;;;5095605;28;20059;-76
2021/08/03 03:30:19;;;;;;;4.40;1.35;;;14.20;88.20;;;;;;5094094;28;20024;-75
2021/08/03 03:32:46;;;;;;;4.25;1.05;;;14.20;88.40;;;;;;5097269;28;20439;-75
2021/08/03 03:35:13;;;;;;;7.50;1.35;;;14.30;88.50;;;;;;5098949;28;20028;-76
2021/08/03 03:37:41;;;;;;;2.10;0.82;;;14.20;88.60;;;;;;5094043;28;20031;-76
2021/08/03 03:40:08;;;;;;;2.75;1.00;;;14.20;88.70;;;;;;5093315;28;20031;-75
2021/08/03 03:42:35;;;;;;;3.67;1.40;;;14.20;88.70;;;;;;5095447;28;20024;-74
2021/08/03 03:45:02;;;;;;;3.83;1.30;;;14.20;89.20;;;;;;5093654;28;20016;-76
2021/08/03 03:47:35;;;;;;;2.67;1.15;;;14.20;88.60;;;;;;5095136;28;20103;-76
2021/08/03 03:50:20;;;;;;;3.58;1.20;;;14.20;88.70;;;;;;5093675;28;20026;-76
2021/08/03 03:52:52;;;;;;;2.35;1.08;;;14.20;88.70;;;;;;5093577;28;20107;-77
2021/08/03 03:55:21;;;;;;;3.05;1.15;;;14.20;88.70;;;;;;5093064;28;20543;-76
2021/08/03 03:57:47;;;;;;;4.53;1.27;;;14.20;88.90;;;;;;5095096;28;20058;-76
2021/08/03 04:00:14;;;;;;;5.03;1.10;;;14.20;89.00;;;;;;5093326;28;20456;-75
2021/08/03 04:02:41;;;;;;;5.93;1.55;;;14.20;88.90;;;;;;5095038;28;20372;-75
2021/08/03 04:05:11;;;;;;;3.20;1.10;;;14.30;89.00;;;;;;5093121;28;20388;-75
2021/08/03 04:07:37;;;;;;;5.25;1.20;;;14.20;88.90;;;;;;5093223;28;20488;-75
2021/08/03 04:10:08;;;;;;;3.60;1.33;;;14.30;89.00;;;;;;5094589;28;20031;-76
2021/08/03 04:12:33;;;;;;;3.22;1.13;;;14.30;89.20;;;;;;5094286;28;20023;-75
2021/08/03 04:14:59;;;;;;;4.70;1.00;;;14.30;89.20;;;;;;5093109;28;20125;-76
2021/08/03 04:17:25;;;;;;;3.63;1.30;;;14.30;89.20;;;;;;5093420;28;20024;-76
2021/08/03 04:19:57;;;;;;;7.28;1.40;;;14.30;88.90;;;;;;5093741;28;20091;-81
2021/08/03 04:22:23;;;;;;;2.53;1.17;;;14.40;88.80;;;;;;5103296;28;20432;-75
2021/08/03 04:24:48;;;;;;;2.08;1.13;;;14.40;88.60;;;;;;5103924;28;20069;-75
2021/08/03 04:27:17;;;;;;;3.10;1.02;;;14.40;88.40;;;;;;5096688;28;20008;-74
2021/08/03 04:29:43;;;;;;;6.43;1.63;;;14.40;88.20;;;;;;5094410;28;20031;-76
2021/08/03 04:32:09;;;;;;;3.92;1.30;;;14.40;88.10;;;;;;5092598;28;20024;-77
2021/08/03 04:34:34;;;;;;;4.32;1.95;;;14.40;87.90;;;;;;5092224;28;20039;-76
2021/08/03 04:37:01;;;;;;;4.35;1.77;;;14.40;87.70;;;;;;5093663;28;20028;-75
2021/08/03 04:39:28;;;;;;;3.83;1.60;;;14.30;87.50;;;;;;5092050;28;20016;-75
2021/08/03 04:41:54;;;;;;;4.22;1.63;;;14.30;87.40;;;;;;5092708;28;20024;-75
2021/08/03 04:44:20;;;;;;;2.45;1.30;;;14.30;87.40;;;;;;5093356;28;20357;-75
2021/08/03 04:46:45;;;;;;;5.15;1.67;;;14.30;87.40;;;;;;5092536;28;20031;-76
2021/08/03 04:49:11;;;;;;;3.17;1.63;;;14.30;87.30;;;;;;5092262;28;20035;-75
2021/08/03 04:51:37;;;;;;;4.07;1.48;;;14.20;87.20;;;;;;5094034;28;20032;-75
2021/08/03 04:54:03;;;;;;;1.90;0.90;;;14.20;87.20;;;;;;5092150;28;20032;-76
2021/08/03 04:56:29;;;;;;;2.88;1.40;;;14.30;87.10;;;;;;5092398;28;20377;-75
2021/08/03 04:58:55;;;;;;;2.85;1.23;;;14.30;86.90;;;;;;5093373;28;20468;-75
2021/08/03 05:01:20;;;;;;;4.50;1.55;;;14.40;87.10;;;;;;5093300;28;20024;-76
2021/08/03 05:03:46;;;;;;;4.40;2.05;;;14.40;86.70;;;;;;5093747;28;20028;-77
2021/08/03 05:06:12;;;;;;;4.63;1.65;;;14.50;86.60;;;;;;5092154;28;20085;-75
2021/08/03 05:08:37;;;;;;;3.75;1.40;;;14.60;86.50;;;;;;5092180;28;20479;-76
2021/08/03 05:11:03;;;;;;;3.97;1.85;;;14.60;86.30;;;;;;5092159;28;20020;-75
2021/08/03 05:13:28;;;;;;;5.78;1.92;;;14.70;86.10;;;;;;5091821;28;20457;-76
2021/08/03 05:15:54;;;;;;;4.50;1.90;;;14.80;85.90;;;;;;5092176;28;20130;-76
2021/08/03 05:18:19;;;;;;;4.93;1.70;;;14.80;86.30;;;;;;5092949;28;20513;-75
2021/08/03 05:20:45;;;;;;;4.03;1.20;;;14.90;85.60;;;;;;5091960;28;20028;-75
2021/08/03 05:23:11;;;;;;;3.88;1.77;;;14.90;85.40;;;;;;5091462;28;20066;-76
2021/08/03 05:25:36;;;;;;;5.47;1.70;;;14.90;85.30;;;;;;5091969;28;20035;-76
2021/08/03 05:28:02;;;;;;;5.65;1.38;;;15.00;85.30;;;;;;5091977;28;20020;-75
2021/08/03 05:30:28;;;;;;;5.65;1.73;;;15.00;85.20;;;;;;5091706;28;20020;-76
2021/08/03 05:32:53;;;;;;;3.03;1.35;;;15.10;85.00;;;;;;5093174;28;20028;-76
2021/08/03 05:35:19;;;;;;;5.07;2.33;;;15.20;85.00;;;;;;5089031;28;20032;-76
2021/08/03 05:37:44;;;;;;;4.32;2.05;;;15.30;84.70;;;;;;5076138;28;20020;-79
2021/08/03 05:40:12;;;;;;;4.70;1.80;;;15.30;84.40;;;;;;5079011;28;20047;-76
2021/08/03 05:42:39;;;;;;;5.30;2.28;;;15.40;84.40;;;;;;5071523;28;20029;-74
2021/08/03 05:45:05;;;;;;;5.65;2.10;;;15.50;84.20;;;;;;5072765;28;20479;-75
2021/08/03 05:47:30;;;;;;;8.13;1.95;;;15.50;84.20;;;;;;5072369;28;20078;-75
2021/08/03 05:49:56;;;;;;;4.13;1.70;;;15.50;84.20;;;;;;5072360;28;20032;-76
2021/08/03 05:52:22;;;;;;;7.28;2.90;;;15.50;84.30;;;;;;5070932;28;20032;-75
2021/08/03 05:54:47;;;;;;;6.53;2.67;;;15.50;84.10;;;;;;5072601;28;20031;-75
2021/08/03 05:57:13;;;;;;;4.93;2.40;;;15.50;84.20;;;;;;5072829;28;20117;-76
2021/08/03 05:59:39;;;;;;;5.35;2.00;;;15.50;84.00;;;;;;5078822;28;20021;-76
2021/08/03 06:02:05;;;;;;;4.82;2.05;;;15.50;84.00;;;;;;5076859;28;20076;-76
2021/08/03 06:04:30;;;;;;;5.20;2.20;;;15.50;84.00;;;;;;5075977;28;20036;-76
2021/08/03 06:06:57;;;;;;;5.97;1.55;;;15.50;84.00;;;;;;5072508;28;20063;-75
2021/08/03 06:09:25;;;;;;;3.65;1.70;;;15.50;83.90;;;;;;5073602;28;20070;-76
2021/08/03 06:11:53;;;;;;;4.47;1.90;;;15.50;83.90;;;;;;5079323;28;20100;-74
2021/08/03 06:14:26;;;;;;;6.90;2.05;;;15.50;83.90;;;;;;5080176;28;20043;-75
2021/08/03 06:16:53;;;;;;;3.50;1.90;;;15.60;84.00;;;;;;5073312;28;20028;-75
2021/08/03 06:19:22;;;;;;;8.45;2.80;;;15.70;84.00;;;;;;5070911;28;20037;-76
2021/08/03 06:21:49;;;;;;;6.85;2.67;;;15.70;83.80;;;;;;5071887;28;20025;-75
2021/08/03 06:24:16;;;;;;;4.93;2.50;;;15.70;83.80;;;;;;5070594;28;20029;-76
2021/08/03 06:26:43;;;;;;;4.97;2.05;;;15.80;83.70;;;;;;5071029;28;20021;-76
2021/08/03 06:29:09;;;;;;;4.68;2.50;;;15.80;83.60;;;;;;5070688;28;20012;-75
2021/08/03 06:31:35;;;;;;;5.40;1.85;;;15.80;83.70;;;;;;5072243;28;20021;-76
2021/08/03 06:34:02;;;;;;;3.95;1.70;;;15.80;83.70;;;;;;5071121;28;20047;-75
2021/08/03 06:36:27;;;;;;;4.88;2.20;;;15.90;83.60;;;;;;5074389;28;20042;-75
2021/08/03 06:38:53;;;;;;;5.72;2.47;;;15.90;83.40;;;;;;5094433;28;20024;-76
2021/08/03 06:41:39;;;;;;;4.45;1.77;;;15.90;83.30;;;;;;5094946;28;20062;-76
2021/08/03 06:44:15;;;;;;;5.22;2.00;;;16.00;83.30;;;;;;5093687;28;20031;-77
2021/08/03 06:46:44;;;;;;;3.70;1.65;;;16.10;83.10;;;;;;5090835;28;20623;-77
2021/08/03 06:49:14;;;;;;;2.50;1.48;;;16.10;83.00;;;;;;5093404;28;20016;-77
2021/08/03 06:51:42;;;;;;;4.68;1.70;;;16.10;82.90;;;;;;5093631;28;20020;-76
2021/08/03 06:54:12;;;;;;;3.28;1.65;;;16.10;82.80;;;;;;5094803;28;20468;-76
2021/08/03 06:56:50;;;;;;;5.18;1.90;;;16.20;82.60;;;;;;5093273;28;20053;-75
2021/08/03 06:59:25;;;;;;;3.78;1.88;;;16.20;82.50;;;;;;5093298;28;20031;-75
2021/08/03 07:02:08;;;;;;;4.63;2.50;;;16.20;82.40;;;;;;5094341;28;20020;-76
2021/08/03 07:04:50;;;;;;;9.52;3.00;;;16.10;82.30;;;;;;5094125;28;20040;-78
2021/08/03 07:07:19;;;;;;;6.70;2.50;;;16.20;82.40;;;;;;5095759;28;20046;-75
2021/08/03 07:09:44;;;;;;;5.63;2.80;;;16.20;82.50;;;;;;5096002;28;20024;-76
2021/08/03 07:12:12;;;;;;;5.93;3.00;;;16.20;82.20;;;;;;5094076;28;20107;-75
2021/08/03 07:14:38;;;;;;;7.75;3.58;;;16.30;82.20;;;;;;5093694;28;20043;-76
2021/08/03 07:17:06;;;;;;;7.20;3.92;;;16.30;82.20;;;;;;5094219;28;20028;-75
2021/08/03 07:19:32;;;;;;;7.10;3.60;;;16.30;82.20;;;;;;5094359;28;20483;-76
2021/08/03 07:22:04;;;;;;;6.97;3.70;;;16.20;82.20;;;;;;5095863;28;20039;-76
2021/08/03 07:24:30;;;;;;;6.10;2.90;;;16.40;82.50;;;;;;5094245;28;20026;-74
2021/08/03 07:26:57;;;;;;;5.68;3.65;;;16.40;82.20;;;;;;5093778;28;20511;-75
2021/08/03 07:29:24;;;;;;;10.13;4.00;;;16.40;82.30;;;;;;5095159;28;20024;-75
2021/08/03 07:31:50;;;;;;;8.98;3.92;;;16.50;82.20;;;;;;5095617;28;20031;-76
2021/08/03 07:34:15;;;;;;;6.57;3.17;;;16.50;82.10;;;;;;5093472;28;20036;-75
2021/08/03 07:36:41;;;;;;;9.25;4.63;;;16.50;81.90;;;;;;5093998;28;20024;-75
2021/08/03 07:39:11;;;;;;;6.50;3.85;;;16.50;81.50;;;;;;5093808;28;20031;-74
2021/08/03 07:41:38;;;;;;;8.30;4.63;;;16.50;81.50;;;;;;5093808;28;20036;-76
2021/08/03 07:44:05;;;;;;;8.68;5.05;;;16.50;81.50;;;;;;5098320;28;20039;-76
2021/08/03 07:46:32;;;;;;;8.18;4.22;;;16.60;81.50;;;;;;5100405;28;20103;-76
2021/08/03 07:48:58;;;;;;;10.35;4.82;;;16.70;81.50;;;;;;5095536;28;20111;-76
2021/08/03 07:51:25;;;;;;;5.18;3.17;;;16.80;81.20;;;;;;5093448;28;20465;-77
2021/08/03 07:53:54;;;;;;;4.80;2.75;;;16.90;80.60;;;;;;5093843;28;20043;-75
2021/08/03 07:56:22;;;;;;;8.75;5.18;;;17.10;80.10;;;;;;5093562;28;20445;-75
2021/08/03 07:58:48;;;;;;;10.55;5.72;;;17.50;80.30;;;;;;5093509;28;20085;-75
2021/08/03 08:01:14;;;;;;;12.88;7.90;;;17.80;79.40;;;;;;5100852;28;20095;-75
2021/08/03 08:03:40;;;;;;;10.68;6.80;;;18.10;78.40;;;;;;5103774;28;20465;-74
2021/08/03 08:06:06;;;;;;;11.63;8.35;;;18.30;77.80;;;;;;5100435;28;20035;-75
2021/08/03 08:08:32;;;;;;;15.50;7.72;;;18.30;76.90;;;;;;5094016;28;20024;-75
2021/08/03 08:10:58;;;;;;;13.88;10.00;;;18.20;76.40;;;;;;5094913;28;20036;-76
2021/08/03 08:13:24;;;;;;;12.70;8.23;;;18.20;76.70;;;;;;5094597;28;20321;-76
2021/08/03 08:15:55;;;;;;;13.48;9.10;;;18.30;76.80;;;;;;5093983;28;20020;-75
2021/08/03 08:18:24;;;;;;;12.07;8.32;;;18.40;76.50;;;;;;5094155;28;20027;-81
2021/08/03 08:20:50;;;;;;;12.98;8.13;;;18.40;76.20;;;;;;5077204;28;20030;-75
2021/08/03 08:23:24;;;;;;;17.50;10.20;;;18.50;76.10;;;;;;5094538;28;20024;-76
2021/08/03 08:25:50;;;;;;;10.15;5.93;;;18.50;75.60;;;;;;5093362;28;20032;-75
2021/08/03 08:28:16;;;;;;;12.52;8.55;;;18.60;76.30;;;;;;5093010;28;20210;-75
2021/08/03 08:30:41;;;;;;;16.90;10.68;;;18.70;75.90;;;;;;5092984;28;20535;-74
2021/08/03 08:33:12;;;;;;;14.38;9.02;;;18.80;75.80;;;;;;5094082;28;20439;-76
2021/08/03 08:35:38;;;;;;;19.08;12.43;;;18.90;74.70;;;;;;5094494;28;20036;-76
2021/08/03 08:38:05;;;;;;;14.35;9.80;;;18.90;74.10;;;;;;5095337;28;20030;-75
2021/08/03 08:40:32;;;;;;;12.55;8.98;;;19.00;74.00;;;;;;5099163;28;20054;-76
2021/08/03 08:42:58;;;;;;;13.25;8.95;;;19.00;74.00;;;;;;5096465;28;20071;-75
2021/08/03 08:45:24;;;;;;;16.17;8.93;;;19.10;74.00;;;;;;5095161;28;20384;-75
2021/08/03 08:47:50;;;;;;;10.40;7.60;;;19.10;73.70;;;;;;5092801;28;20024;-76
2021/08/03 08:50:20;;;;;;;17.05;11.63;;;19.00;73.70;;;;;;5092651;28;20023;-76
2021/08/03 08:52:49;;;;;;;11.77;8.88;;;19.00;73.60;;;;;;5092399;28;20453;-76
2021/08/03 08:55:15;;;;;;;11.93;8.30;;;19.00;73.20;;;;;;5092137;28;20050;-76
2021/08/03 08:57:46;;;;;;;11.15;6.75;;;19.00;73.40;;;;;;5091564;28;20016;-75
2021/08/03 09:00:13;;;;;;;10.73;5.97;;;19.10;73.60;;;;;;5093727;28;20020;-76
2021/08/03 09:02:40;;;;;;;12.52;7.40;;;19.10;73.50;;;;;;5093227;28;20028;-75
2021/08/03 09:05:11;;;;;;;7.68;5.10;;;19.20;73.70;;;;;;5092168;28;20116;-76
2021/08/03 09:07:48;;;;;;;12.25;6.75;;;19.30;73.60;;;;;;5091850;28;20059;-76
2021/08/03 09:10:36;;;;;;;12.68;8.55;;;19.20;73.50;;;;;;5091998;28;20106;-76
2021/08/03 09:13:08;;;;;;;10.40;6.65;;;19.40;73.90;;;;;;5092046;28;20047;-75
2021/08/03 09:15:36;;;;;;;18.35;10.23;;;19.50;72.90;;;;;;5091310;28;20032;-76
2021/08/03 09:18:27;;;;;;;14.20;8.63;;;19.70;72.50;;;;;;5093145;28;20024;-76
2021/08/03 09:20:53;;;;;;;13.30;8.15;;;19.80;72.60;;;;;;5092141;28;20474;-76
2021/08/03 09:23:19;;;;;;;11.25;6.55;;;20.00;72.60;;;;;;5091648;28;20016;-76
2021/08/03 09:25:54;;;;;;;10.50;5.88;;;20.20;71.20;;;;;;5093121;28;20103;-76
2021/08/03 09:28:19;;;;;;;8.23;5.03;;;20.30;70.20;;;;;;5091659;28;20027;-76
2021/08/03 09:30:45;;;;;;;11.25;5.63;;;20.30;70.20;;;;;;5091389;28;20373;-76
2021/08/03 09:33:20;;;;;;;14.32;7.82;;;20.40;69.50;;;;;;5091656;28;20036;-76
2021/08/03 09:35:48;;;;;;;11.18;7.10;;;20.40;69.20;;;;;;5093142;28;20403;-76
2021/08/03 09:38:15;;;;;;;9.02;5.13;;;20.50;68.70;;;;;;5091775;28;20530;-76
2021/08/03 09:40:41;;;;;;;15.98;10.50;;;20.40;68.70;;;;;;5091413;28;20024;-75
2021/08/03 09:43:12;;;;;;;5.97;3.05;;;20.50;68.90;;;;;;5093275;28;20418;-74
2021/08/03 09:45:43;;;;;;;7.63;3.92;;;20.60;68.80;;;;;;5091754;28;20062;-75
2021/08/03 09:48:13;;;;;;;15.43;10.60;;;20.80;68.30;;;;;;5093771;28;20028;-77
2021/08/03 09:50:56;;;;;;;13.80;8.90;;;20.90;68.00;;;;;;5097047;28;20047;-76
2021/08/03 09:53:37;;;;;;;5.65;3.35;;;20.90;67.50;;;;;;5101755;28;20449;-77
2021/08/03 09:56:04;;;;;;;18.45;11.38;;;21.00;68.60;;;;;;5100439;28;20031;-76
2021/08/03 09:58:31;;;;;;;14.05;9.32;;;21.10;67.40;;;;;;5093668;28;20035;-76
2021/08/03 10:01:17;;;;;;;9.52;5.90;;;21.00;66.70;;;;;;5091388;28;20024;-75
2021/08/03 10:03:43;;;;;;;13.85;7.30;;;21.00;67.80;;;;;;5092180;28;20118;-75
2021/08/03 10:06:10;;;;;;;4.75;2.30;;;21.10;67.00;;;;;;5091398;28;20051;-75
2021/08/03 10:08:37;;;;;;;11.15;7.70;;;21.00;68.60;;;;;;5091943;28;20472;-75
2021/08/03 10:11:04;;;;;;;4.88;2.40;;;21.00;67.70;;;;;;5093181;28;20020;-75
2021/08/03 10:13:30;;;;;;;8.52;5.93;;;21.00;69.30;;;;;;5091052;28;20368;-75
2021/08/03 10:15:55;;;;;;;12.05;7.38;;;21.10;69.10;;;;;;5091096;28;20078;-76
2021/08/03 10:18:21;;;;;;;10.38;6.63;;;21.10;67.50;;;;;;5091309;28;20460;-75
2021/08/03 10:20:47;;;;;;;15.77;10.07;;;21.10;68.30;;;;;;5091359;28;20020;-76
2021/08/03 10:23:14;;;;;;;9.77;5.22;;;21.10;67.80;;;;;;5091053;28;20025;-75
2021/08/03 10:25:42;;;;;;;16.48;9.40;;;21.10;69.00;;;;;;5090862;28;20047;-76
2021/08/03 10:28:22;;;;;;;16.42;12.55;;;21.20;67.40;;;;;;5091182;28;20024;-75
2021/08/03 10:30:48;;;;;;;14.43;10.48;;;21.20;67.40;;;;;;5090852;28;20027;-75
2021/08/03 10:33:38;;;;;;;18.25;14.95;;;21.30;66.90;;;;;;5092016;28;20075;-76
2021/08/03 10:36:03;;;;;;;15.00;10.15;;;21.40;67.20;;;;;;5090309;28;20118;-75
2021/08/03 10:38:29;;;;;;;14.73;10.05;;;21.50;66.90;;;;;;5090716;28;20055;-75
2021/08/03 10:41:16;;;;;;;18.88;14.68;;;21.50;67.80;;;;;;5090835;28;20020;-75
2021/08/03 10:43:48;;;;;;;7.72;4.57;;;21.70;65.80;;;;;;5092088;28;20081;-75
2021/08/03 10:46:14;;;;;;;13.43;7.63;;;21.70;68.00;;;;;;5090742;28;20381;-75
2021/08/03 10:48:39;;;;;;;11.35;7.78;;;21.80;67.20;;;;;;5091592;28;20057;-75
2021/08/03 10:51:14;;;;;;;20.90;15.82;;;21.90;67.40;;;;;;5090919;28;20024;-74
2021/08/03 10:53:58;;;;;;;22.98;18.20;;;22.00;66.50;;;;;;5092045;28;20024;-76
2021/08/03 10:56:24;;;;;;;15.63;13.07;;;21.90;64.90;;;;;;5090911;28;20024;-76
2021/08/03 10:58:49;;;;;;;23.92;18.75;;;21.80;65.90;;;;;;5091852;28;20028;-77
2021/08/03 11:01:43;;;;;;;22.67;17.73;;;21.60;64.30;;;;;;5091612;28;20111;-76
2021/08/03 11:04:09;;;;;;;15.68;13.23;;;21.50;63.10;;;;;;5090662;28;20024;-76
2021/08/03 11:06:35;;;;;;;14.52;10.63;;;21.40;65.10;;;;;;5090114;28;20027;-76
2021/08/03 11:09:02;;;;;;;18.10;15.65;;;21.30;65.70;;;;;;5092063;28;20029;-76
2021/08/03 11:11:29;;;;;;;22.40;18.48;;;21.20;67.00;;;;;;5091928;28;20429;-74
2021/08/03 11:13:56;;;;;;;11.20;8.80;;;21.10;67.20;;;;;;5090494;28;20427;-75
2021/08/03 11:16:22;;;;;;;23.25;16.10;;;21.00;68.60;;;;;;5090840;28;20031;-77
2021/08/03 11:18:52;;;;;;;11.60;7.30;;;20.90;68.00;;;;;;5091753;28;20024;-77
2021/08/03 11:21:20;;;;;;;12.20;10.15;;;20.70;70.20;;;;;;5098051;28;20027;-76
2021/08/03 11:23:59;;;;;;;14.93;11.73;;;20.70;70.40;;;;;;5100713;28;20032;-76
2021/08/03 11:26:28;;;;;;;16.07;11.83;;;20.60;69.80;;;;;;5100483;28;20101;-77
2021/08/03 11:28:59;;;;;;;15.13;11.45;;;20.50;70.10;;;;;;5094746;28;20276;-76
2021/08/03 11:32:03;;;;;;;21.95;17.38;;;20.40;70.90;;;;;;5094200;28;20498;-76
2021/08/03 11:34:42;;;;;;;37.50;29.05;;;20.20;69.70;;;;;;5072990;28;20051;-80
2021/08/03 11:37:20;;;;;;;29.33;24.08;;;20.10;69.10;;;;;;5094914;28;20016;-78
2021/08/03 11:39:55;;;;;;;15.40;12.68;;;20.00;68.70;;;;;;5096131;28;20016;-78
2021/08/03 11:42:41;;;;;;;30.35;24.85;;;19.90;70.80;;;;;;5100368;28;20115;-77
2021/08/03 11:45:21;;;;;;;15.57;12.57;;;19.90;71.10;;;;;;5109767;28;20035;-77
2021/08/03 11:47:51;;;;;;;11.90;8.00;;;19.90;72.40;;;;;;5102540;28;20494;-78
2021/08/03 11:50:28;;;;;;;20.35;16.52;;;19.90;74.30;;;;;;5096395;28;20113;-78
2021/08/03 11:52:54;;;;;;;33.90;23.45;;;19.90;73.10;;;;;;5098218;28;20090;-80
2021/08/03 11:55:20;;;;;;;16.05;12.05;;;19.80;70.40;;;;;;5107795;28;20091;-79
2021/08/03 11:57:49;;;;;;;12.73;9.40;;;19.70;72.30;;;;;;5105962;28;20039;-81
2021/08/03 12:00:17;;;;;;;12.88;11.15;;;19.70;74.00;;;;;;5097907;28;20165;-79
2021/08/03 12:02:46;;;;;;;15.00;12.48;;;19.70;72.80;;;;;;5096382;28;20028;-78
2021/08/03 12:05:20;;;;;;;11.45;7.60;;;19.60;73.50;;;;;;5096367;28;20056;-79
2021/08/03 12:07:53;;;;;;;10.55;7.63;;;19.60;74.30;;;;;;5094180;28;20468;-78
2021/08/03 12:10:22;;;;;;;11.48;7.72;;;19.70;74.60;;;;;;5094324;28;20601;-78
2021/08/03 12:12:48;;;;;;;30.27;22.65;;;19.70;74.60;;;;;;5093743;28;20103;-78
2021/08/03 12:15:15;;;;;;;13.10;8.50;;;19.70;72.20;;;;;;5095969;28;20060;-78
2021/08/03 12:17:43;;;;;;;11.98;8.15;;;19.70;73.10;;;;;;5093858;28;20027;-78
2021/08/03 12:20:30;;;;;;;19.02;14.77;;;19.80;74.00;;;;;;5094474;28;20180;-78
2021/08/03 12:23:18;;;;;;;12.63;8.57;;;19.90;72.70;;;;;;5093193;28;20036;-78
2021/08/03 12:25:46;;;;;;;30.08;23.80;;;19.90;73.30;;;;;;5093672;28;20028;-78
2021/08/03 12:28:36;;;;;;;25.77;18.65;;;19.90;70.40;;;;;;5093824;28;20024;-78
2021/08/03 12:31:29;;;;;;;28.83;24.38;;;19.90;70.30;;;;;;5095249;28;20035;-80
2021/08/03 12:34:15;;;;;;;21.20;14.95;;;19.90;68.70;;;;;;5094220;28;20035;-80
2021/08/03 12:36:54;;;;;;;33.53;23.65;;;19.90;69.00;;;;;;5095733;28;20012;-79
2021/08/03 12:39:48;;;;;;;31.98;23.70;;;19.90;68.20;;;;;;5094357;28;20031;-79
2021/08/03 12:42:32;;;;;;;30.92;24.45;;;19.90;68.40;;;;;;5093328;28;20469;-79
2021/08/03 12:45:15;;;;;;;26.25;21.70;;;19.90;67.80;;;;;;5094622;28;20396;-81
2021/08/03 12:47:55;;;;;;;25.90;18.90;;;19.90;67.70;;;;;;5093858;28;20111;-81
2021/08/03 12:50:21;;;;;;;33.00;23.73;;;19.90;68.20;;;;;;5095488;28;20046;-78
2021/08/03 12:52:49;;;;;;;23.75;20.60;;;19.90;69.40;;;;;;5093931;28;20087;-80
2021/08/03 12:55:24;;;;;;;24.30;18.88;;;19.90;69.00;;;;;;5094060;28;20096;-79